This is the latest recevied weather packets stored in our database for station/object GW1599. If no packets are shown the sender has not sent any weather packets the latest 10 day(s).
| Time | Temp. | Humidity | Pressure | Rain* | Wind** | Luminosity | Snow |
|---|---|---|---|---|---|---|---|
| 1777307091 | 23.33° C | 51% | 1020.3 hPa | 0 mm | - | - | - |
| 1777305250 | 22.78° C | 53% | 1020.6 hPa | 0 mm | - | - | - |
| 1777303133 | 21.67° C | 60% | 1020.6 hPa | 0 mm | - | - | - |
| 1777302731 | 21.67° C | 59% | 1020.9 hPa | 0 mm | - | - | - |
| 1777301295 | 20.56° C | 62% | 1020.6 hPa | 0 mm | - | - | - |
| 1777300948 | 20° C | 60% | 1020.6 hPa | 0 mm | - | - | - |
| 1777300590 | 19.44° C | 63% | 1020.6 hPa | 0 mm | - | - | - |
| 1777297734 | 16.11° C | 73% | 1021.3 hPa | 0 mm | - | - | - |
| 1777297359 | 15.56° C | 74% | 1021.3 hPa | 0 mm | - | - | - |
| 1777296286 | 13.33° C | 82% | 1021.3 hPa | 0 mm | - | - | - |
| 1777295563 | 12.78° C | 89% | 1021.3 hPa | 0 mm | - | - | - |
| 1777291238 | 6.67° C | 95% | 1021.6 hPa | 0 mm | - | - | - |
| 1777289802 | 5.56° C | 94% | 1022 hPa | 0 mm | - | - | - |
| 1777285834 | 6.11° C | 93% | 1021.3 hPa | 0 mm | - | - | - |
| 1777283679 | 6.67° C | 93% | 1020.6 hPa | 0 mm | - | - | - |
| 1777278630 | 7.22° C | 93% | 1019.9 hPa | 0 mm | - | - | - |
| 1777276462 | 7.22° C | 93% | 1018.9 hPa | 0 mm | - | - | - |
| 1777274670 | 7.78° C | 93% | 1019.3 hPa | 0 mm | - | - | - |
| 1777274310 | 7.78° C | 93% | 1019.3 hPa | 0 mm | - | - | - |
| 1777273610 | 7.78° C | 93% | 1019.3 hPa | 0 mm | - | - | - |
| 1777271065 | 8.33° C | 92% | 1019.6 hPa | 0 mm | - | - | - |
| 1777270357 | 8.33° C | 92% | 1019.6 hPa | 0 mm | - | - | - |
| 1777269979 | 8.89° C | 92% | 1019.6 hPa | 0 mm | - | - | - |
| 1777269623 | 8.89° C | 92% | 1019.6 hPa | 0 mm | - | - | - |
| 1777267126 | 8.89° C | 91% | 1019.9 hPa | 0 mm | - | - | - |
* Rain since midnight (hover to see other rain measurements)
** Current wind speed in m/s (hover to see current wind gust speed)